sensor_id;sensor_type;location;lat;lon;timestamp;P1;durP1;ratioP1;P2;durP2;ratioP2
74777;SDS011;63298;53.164;8.610;2024-03-23T00:54:01;17.60;;;2.05;;
74777;SDS011;63298;53.164;8.610;2024-03-23T00:56:29;10.48;;;2.33;;
74777;SDS011;63298;53.164;8.610;2024-03-23T00:58:57;21.25;;;3.42;;
74777;SDS011;63298;53.164;8.610;2024-03-23T01:01:22;16.02;;;3.35;;
74777;SDS011;63298;53.164;8.610;2024-03-23T01:03:48;21.10;;;3.05;;
74777;SDS011;63298;53.164;8.610;2024-03-23T01:06:13;15.20;;;2.00;;
74777;SDS011;63298;53.164;8.610;2024-03-23T01:08:39;17.98;;;3.20;;
74777;SDS011;63298;53.164;8.610;2024-03-23T01:11:07;14.13;;;2.55;;
74777;SDS011;63298;53.164;8.610;2024-03-23T01:13:33;17.73;;;2.60;;
74777;SDS011;63298;53.164;8.610;2024-03-23T01:15:58;12.73;;;2.67;;
74777;SDS011;63298;53.164;8.610;2024-03-23T01:18:24;17.25;;;2.25;;
74777;SDS011;63298;53.164;8.610;2024-03-23T01:20:50;21.27;;;2.38;;
74777;SDS011;63298;53.164;8.610;2024-03-23T01:23:15;19.90;;;2.38;;
74777;SDS011;63298;53.164;8.610;2024-03-23T01:25:44;13.23;;;2.13;;
74777;SDS011;63298;53.164;8.610;2024-03-23T01:28:17;16.00;;;2.33;;
74777;SDS011;63298;53.164;8.610;2024-03-23T01:30:50;12.23;;;2.38;;
74777;SDS011;63298;53.164;8.610;2024-03-23T01:33:18;13.60;;;2.88;;
74777;SDS011;63298;53.164;8.610;2024-03-23T01:35:46;19.98;;;3.33;;
74777;SDS011;63298;53.164;8.610;2024-03-23T01:38:12;14.70;;;2.50;;
74777;SDS011;63298;53.164;8.610;2024-03-23T01:40:37;14.65;;;2.28;;
74777;SDS011;63298;53.164;8.610;2024-03-23T01:43:04;13.05;;;2.30;;
74777;SDS011;63298;53.164;8.610;2024-03-23T01:45:33;13.52;;;2.55;;
74777;SDS011;63298;53.164;8.610;2024-03-23T01:48:01;16.23;;;2.97;;
74777;SDS011;63298;53.164;8.610;2024-03-23T01:50:27;15.35;;;2.72;;
74777;SDS011;63298;53.164;8.610;2024-03-23T01:52:55;9.15;;;1.85;;
74777;SDS011;63298;53.164;8.610;2024-03-23T01:55:20;16.30;;;2.30;;
74777;SDS011;63298;53.164;8.610;2024-03-23T01:57:48;13.18;;;2.83;;
74777;SDS011;63298;53.164;8.610;2024-03-23T02:00:13;22.13;;;2.72;;
74777;SDS011;63298;53.164;8.610;2024-03-23T02:02:45;22.08;;;3.22;;
74777;SDS011;63298;53.164;8.610;2024-03-23T02:05:13;11.82;;;2.65;;
74777;SDS011;63298;53.164;8.610;2024-03-23T02:07:40;21.35;;;3.05;;
74777;SDS011;63298;53.164;8.610;2024-03-23T02:10:07;16.23;;;2.53;;
74777;SDS011;63298;53.164;8.610;2024-03-23T02:12:32;22.27;;;3.13;;
74777;SDS011;63298;53.164;8.610;2024-03-23T02:14:59;14.65;;;2.58;;
74777;SDS011;63298;53.164;8.610;2024-03-23T02:17:24;17.45;;;2.60;;
74777;SDS011;63298;53.164;8.610;2024-03-23T02:19:50;13.88;;;2.58;;
74777;SDS011;63298;53.164;8.610;2024-03-23T02:22:16;18.27;;;4.20;;
74777;SDS011;63298;53.164;8.610;2024-03-23T02:24:41;12.07;;;2.78;;
74777;SDS011;63298;53.164;8.610;2024-03-23T02:27:07;19.60;;;2.65;;
74777;SDS011;63298;53.164;8.610;2024-03-23T02:29:33;16.60;;;2.75;;
74777;SDS011;63298;53.164;8.610;2024-03-23T02:31:59;24.15;;;3.00;;
74777;SDS011;63298;53.164;8.610;2024-03-23T02:34:24;11.05;;;2.60;;
74777;SDS011;63298;53.164;8.610;2024-03-23T02:36:50;12.85;;;2.40;;
74777;SDS011;63298;53.164;8.610;2024-03-23T02:39:15;15.45;;;2.22;;
74777;SDS011;63298;53.164;8.610;2024-03-23T02:41:41;19.60;;;3.55;;
74777;SDS011;63298;53.164;8.610;2024-03-23T02:44:06;26.77;;;2.95;;
74777;SDS011;63298;53.164;8.610;2024-03-23T02:46:32;19.63;;;2.75;;
74777;SDS011;63298;53.164;8.610;2024-03-23T02:48:57;18.60;;;2.60;;
74777;SDS011;63298;53.164;8.610;2024-03-23T02:51:26;18.90;;;3.08;;
74777;SDS011;63298;53.164;8.610;2024-03-23T02:53:51;10.32;;;2.20;;
74777;SDS011;63298;53.164;8.610;2024-03-23T02:56:17;9.60;;;2.10;;
74777;SDS011;63298;53.164;8.610;2024-03-23T02:58:42;13.88;;;2.72;;
74777;SDS011;63298;53.164;8.610;2024-03-23T03:01:11;13.55;;;2.22;;
74777;SDS011;63298;53.164;8.610;2024-03-23T03:03:40;18.65;;;2.35;;
74777;SDS011;63298;53.164;8.610;2024-03-23T03:06:09;21.40;;;3.10;;
74777;SDS011;63298;53.164;8.610;2024-03-23T03:08:43;14.13;;;2.35;;
74777;SDS011;63298;53.164;8.610;2024-03-23T03:11:09;14.43;;;3.22;;
74777;SDS011;63298;53.164;8.610;2024-03-23T03:13:45;16.33;;;2.83;;
74777;SDS011;63298;53.164;8.610;2024-03-23T03:16:13;16.40;;;2.67;;
74777;SDS011;63298;53.164;8.610;2024-03-23T03:18:42;12.82;;;2.63;;
74777;SDS011;63298;53.164;8.610;2024-03-23T03:21:08;12.13;;;2.35;;
74777;SDS011;63298;53.164;8.610;2024-03-23T03:23:41;9.80;;;2.47;;
74777;SDS011;63298;53.164;8.610;2024-03-23T03:26:12;16.80;;;3.08;;
74777;SDS011;63298;53.164;8.610;2024-03-23T03:28:41;15.77;;;2.72;;
74777;SDS011;63298;53.164;8.610;2024-03-23T03:31:09;18.88;;;2.97;;
74777;SDS011;63298;53.164;8.610;2024-03-23T03:33:34;20.10;;;3.22;;
74777;SDS011;63298;53.164;8.610;2024-03-23T03:36:00;10.70;;;2.60;;
74777;SDS011;63298;53.164;8.610;2024-03-23T03:38:31;16.75;;;2.92;;
74777;SDS011;63298;53.164;8.610;2024-03-23T03:40:59;15.02;;;2.95;;
74777;SDS011;63298;53.164;8.610;2024-03-23T03:43:30;22.05;;;2.65;;
74777;SDS011;63298;53.164;8.610;2024-03-23T03:45:56;18.52;;;2.80;;
74777;SDS011;63298;53.164;8.610;2024-03-23T03:48:25;22.30;;;3.08;;
74777;SDS011;63298;53.164;8.610;2024-03-23T03:50:56;15.65;;;2.30;;
74777;SDS011;63298;53.164;8.610;2024-03-23T03:53:25;12.38;;;2.63;;
74777;SDS011;63298;53.164;8.610;2024-03-23T03:56:02;13.65;;;2.60;;
74777;SDS011;63298;53.164;8.610;2024-03-23T03:58:34;24.48;;;3.13;;
74777;SDS011;63298;53.164;8.610;2024-03-23T04:01:05;12.65;;;2.67;;
74777;SDS011;63298;53.164;8.610;2024-03-23T04:03:43;11.23;;;2.67;;
74777;SDS011;63298;53.164;8.610;2024-03-23T04:06:11;12.00;;;2.65;;
74777;SDS011;63298;53.164;8.610;2024-03-23T04:08:48;17.05;;;2.83;;
74777;SDS011;63298;53.164;8.610;2024-03-23T04:11:22;13.18;;;2.20;;
74777;SDS011;63298;53.164;8.610;2024-03-23T04:13:50;18.52;;;3.47;;
74777;SDS011;63298;53.164;8.610;2024-03-23T04:16:28;17.02;;;3.00;;
74777;SDS011;63298;53.164;8.610;2024-03-23T04:18:55;17.50;;;2.58;;
74777;SDS011;63298;53.164;8.610;2024-03-23T04:21:42;19.73;;;2.67;;
74777;SDS011;63298;53.164;8.610;2024-03-23T04:24:10;18.83;;;2.40;;
74777;SDS011;63298;53.164;8.610;2024-03-23T04:26:42;15.40;;;2.40;;
74777;SDS011;63298;53.164;8.610;2024-03-23T04:29:11;23.00;;;3.30;;
74777;SDS011;63298;53.164;8.610;2024-03-23T04:31:46;11.52;;;2.08;;
74777;SDS011;63298;53.164;8.610;2024-03-23T04:34:15;25.00;;;2.97;;
74777;SDS011;63298;53.164;8.610;2024-03-23T04:36:56;14.38;;;2.22;;
74777;SDS011;63298;53.164;8.610;2024-03-23T04:39:24;11.80;;;2.45;;
74777;SDS011;63298;53.164;8.610;2024-03-23T04:41:55;10.63;;;2.45;;
74777;SDS011;63298;53.164;8.610;2024-03-23T04:44:26;17.67;;;2.53;;
74777;SDS011;63298;53.164;8.610;2024-03-23T04:47:04;16.33;;;3.22;;
74777;SDS011;63298;53.164;8.610;2024-03-23T04:49:36;18.60;;;2.53;;
74777;SDS011;63298;53.164;8.610;2024-03-23T04:52:05;23.92;;;3.55;;
74777;SDS011;63298;53.164;8.610;2024-03-23T04:54:43;18.65;;;3.17;;
74777;SDS011;63298;53.164;8.610;2024-03-23T05:00:43;16.25;;;2.28;;
74777;SDS011;63298;53.164;8.610;2024-03-23T05:03:15;12.13;;;2.17;;
74777;SDS011;63298;53.164;8.610;2024-03-23T05:05:54;20.42;;;3.03;;
74777;SDS011;63298;53.164;8.610;2024-03-23T05:21:57;14.30;;;3.72;;
74777;SDS011;63298;53.164;8.610;2024-03-23T05:24:36;16.35;;;2.42;;
74777;SDS011;63298;53.164;8.610;2024-03-23T05:27:02;14.70;;;2.75;;
74777;SDS011;63298;53.164;8.610;2024-03-23T05:29:30;13.80;;;2.90;;
74777;SDS011;63298;53.164;8.610;2024-03-23T05:31:58;11.13;;;2.67;;
74777;SDS011;63298;53.164;8.610;2024-03-23T05:34:23;18.65;;;2.60;;
74777;SDS011;63298;53.164;8.610;2024-03-23T05:36:50;11.65;;;2.30;;
74777;SDS011;63298;53.164;8.610;2024-03-23T05:39:16;15.40;;;3.60;;
74777;SDS011;63298;53.164;8.610;2024-03-23T05:41:41;18.23;;;3.15;;
74777;SDS011;63298;53.164;8.610;2024-03-23T05:44:10;21.10;;;3.20;;
74777;SDS011;63298;53.164;8.610;2024-03-23T05:46:36;16.85;;;2.75;;
74777;SDS011;63298;53.164;8.610;2024-03-23T05:49:01;20.90;;;3.42;;
74777;SDS011;63298;53.164;8.610;2024-03-23T05:51:27;19.38;;;2.97;;
74777;SDS011;63298;53.164;8.610;2024-03-23T05:53:55;23.85;;;3.40;;
74777;SDS011;63298;53.164;8.610;2024-03-23T05:56:24;22.15;;;3.70;;
74777;SDS011;63298;53.164;8.610;2024-03-23T05:58:56;14.40;;;2.05;;
74777;SDS011;63298;53.164;8.610;2024-03-23T06:01:24;17.30;;;3.13;;
74777;SDS011;63298;53.164;8.610;2024-03-23T06:03:49;16.15;;;2.55;;
74777;SDS011;63298;53.164;8.610;2024-03-23T06:06:39;12.23;;;3.05;;
74777;SDS011;63298;53.164;8.610;2024-03-23T06:09:04;12.38;;;2.13;;
74777;SDS011;63298;53.164;8.610;2024-03-23T06:11:30;13.80;;;2.90;;
74777;SDS011;63298;53.164;8.610;2024-03-23T06:13:59;17.48;;;2.92;;
74777;SDS011;63298;53.164;8.610;2024-03-23T06:16:24;14.65;;;2.42;;
74777;SDS011;63298;53.164;8.610;2024-03-23T06:18:50;12.40;;;2.72;;
74777;SDS011;63298;53.164;8.610;2024-03-23T06:21:21;19.02;;;3.33;;
74777;SDS011;63298;53.164;8.610;2024-03-23T06:23:51;14.18;;;3.25;;
74777;SDS011;63298;53.164;8.610;2024-03-23T06:26:20;13.90;;;2.42;;
74777;SDS011;63298;53.164;8.610;2024-03-23T06:29:02;9.18;;;2.58;;
74777;SDS011;63298;53.164;8.610;2024-03-23T06:31:46;18.85;;;3.25;;
74777;SDS011;63298;53.164;8.610;2024-03-23T06:34:44;15.85;;;3.00;;
74777;SDS011;63298;53.164;8.610;2024-03-23T06:40:35;19.55;;;3.03;;
74777;SDS011;63298;53.164;8.610;2024-03-23T06:43:17;20.60;;;2.85;;
74777;SDS011;63298;53.164;8.610;2024-03-23T06:45:55;21.90;;;3.88;;
74777;SDS011;63298;53.164;8.610;2024-03-23T06:48:59;22.23;;;3.58;;
74777;SDS011;63298;53.164;8.610;2024-03-23T06:51:34;20.27;;;2.97;;
74777;SDS011;63298;53.164;8.610;2024-03-23T06:54:00;15.38;;;2.78;;
74777;SDS011;63298;53.164;8.610;2024-03-23T06:56:33;21.40;;;2.83;;
74777;SDS011;63298;53.164;8.610;2024-03-23T06:59:19;24.10;;;3.20;;
74777;SDS011;63298;53.164;8.610;2024-03-23T07:01:52;12.75;;;3.33;;
74777;SDS011;63298;53.164;8.610;2024-03-23T07:04:21;20.02;;;3.17;;
74777;SDS011;63298;53.164;8.610;2024-03-23T07:06:47;16.05;;;2.80;;
74777;SDS011;63298;53.164;8.610;2024-03-23T07:09:35;18.85;;;3.10;;
74777;SDS011;63298;53.164;8.610;2024-03-23T07:12:02;9.43;;;3.13;;
74777;SDS011;63298;53.164;8.610;2024-03-23T07:14:44;11.40;;;2.03;;
74777;SDS011;63298;53.164;8.610;2024-03-23T07:17:49;13.13;;;2.65;;
74777;SDS011;63298;53.164;8.610;2024-03-23T07:20:22;10.85;;;2.85;;
74777;SDS011;63298;53.164;8.610;2024-03-23T07:23:32;20.83;;;3.15;;
74777;SDS011;63298;53.164;8.610;2024-03-23T07:28:30;22.05;;;4.50;;
74777;SDS011;63298;53.164;8.610;2024-03-23T07:34:21;14.23;;;3.25;;
74777;SDS011;63298;53.164;8.610;2024-03-23T07:36:57;16.65;;;3.65;;
74777;SDS011;63298;53.164;8.610;2024-03-23T07:39:34;19.48;;;4.03;;
74777;SDS011;63298;53.164;8.610;2024-03-23T07:42:17;17.15;;;3.13;;
74777;SDS011;63298;53.164;8.610;2024-03-23T07:44:55;17.20;;;3.05;;
74777;SDS011;63298;53.164;8.610;2024-03-23T07:49:57;15.00;;;2.63;;
74777;SDS011;63298;53.164;8.610;2024-03-23T07:52:22;13.52;;;2.45;;
74777;SDS011;63298;53.164;8.610;2024-03-23T07:54:51;14.43;;;3.28;;
74777;SDS011;63298;53.164;8.610;2024-03-23T07:57:16;14.65;;;2.45;;
74777;SDS011;63298;53.164;8.610;2024-03-23T07:59:42;13.02;;;2.75;;
74777;SDS011;63298;53.164;8.610;2024-03-23T08:02:10;10.77;;;2.75;;
74777;SDS011;63298;53.164;8.610;2024-03-23T08:04:38;14.52;;;3.03;;
74777;SDS011;63298;53.164;8.610;2024-03-23T08:07:06;13.10;;;2.10;;
74777;SDS011;63298;53.164;8.610;2024-03-23T08:12:55;13.35;;;2.20;;
74777;SDS011;63298;53.164;8.610;2024-03-23T08:15:21;12.27;;;2.38;;
74777;SDS011;63298;53.164;8.610;2024-03-23T08:17:46;13.20;;;2.22;;
74777;SDS011;63298;53.164;8.610;2024-03-23T08:20:12;15.95;;;2.03;;
74777;SDS011;63298;53.164;8.610;2024-03-23T08:22:38;20.27;;;2.30;;
74777;SDS011;63298;53.164;8.610;2024-03-23T08:25:03;11.85;;;2.45;;
74777;SDS011;63298;53.164;8.610;2024-03-23T08:27:29;7.90;;;2.00;;
74777;SDS011;63298;53.164;8.610;2024-03-23T08:29:57;15.38;;;2.10;;
74777;SDS011;63298;53.164;8.610;2024-03-23T08:32:29;7.32;;;1.58;;
74777;SDS011;63298;53.164;8.610;2024-03-23T08:34:54;9.30;;;2.13;;
74777;SDS011;63298;53.164;8.610;2024-03-23T08:37:20;11.63;;;2.20;;
74777;SDS011;63298;53.164;8.610;2024-03-23T08:39:48;8.52;;;1.80;;
74777;SDS011;63298;53.164;8.610;2024-03-23T08:42:16;8.85;;;1.38;;
74777;SDS011;63298;53.164;8.610;2024-03-23T08:44:41;13.85;;;1.85;;
74777;SDS011;63298;53.164;8.610;2024-03-23T08:47:07;8.73;;;1.92;;
74777;SDS011;63298;53.164;8.610;2024-03-23T08:49:32;12.15;;;1.88;;
74777;SDS011;63298;53.164;8.610;2024-03-23T08:52:01;12.80;;;2.63;;
74777;SDS011;63298;53.164;8.610;2024-03-23T08:55:05;12.43;;;1.98;;
74777;SDS011;63298;53.164;8.610;2024-03-23T08:57:36;10.40;;;1.65;;
74777;SDS011;63298;53.164;8.610;2024-03-23T09:00:17;8.43;;;1.85;;
74777;SDS011;63298;53.164;8.610;2024-03-23T09:03:40;7.40;;;1.75;;
74777;SDS011;63298;53.164;8.610;2024-03-23T09:06:09;10.48;;;1.70;;
74777;SDS011;63298;53.164;8.610;2024-03-23T09:08:45;8.65;;;1.80;;
74777;SDS011;63298;53.164;8.610;2024-03-23T09:11:21;8.02;;;1.30;;
74777;SDS011;63298;53.164;8.610;2024-03-23T09:13:52;5.90;;;1.40;;
74777;SDS011;63298;53.164;8.610;2024-03-23T09:16:17;9.00;;;1.77;;
74777;SDS011;63298;53.164;8.610;2024-03-23T09:18:49;5.32;;;1.27;;
74777;SDS011;63298;53.164;8.610;2024-03-23T09:21:14;6.88;;;1.30;;
74777;SDS011;63298;53.164;8.610;2024-03-23T09:23:49;5.68;;;1.25;;
74777;SDS011;63298;53.164;8.610;2024-03-23T09:26:20;5.47;;;1.38;;
74777;SDS011;63298;53.164;8.610;2024-03-23T09:29:00;11.30;;;1.85;;
74777;SDS011;63298;53.164;8.610;2024-03-23T09:31:26;7.10;;;1.20;;
74777;SDS011;63298;53.164;8.610;2024-03-23T09:33:52;5.10;;;1.83;;
74777;SDS011;63298;53.164;8.610;2024-03-23T09:36:20;10.65;;;2.20;;
74777;SDS011;63298;53.164;8.610;2024-03-23T09:42:09;9.85;;;1.50;;
74777;SDS011;63298;53.164;8.610;2024-03-23T09:44:35;9.43;;;1.55;;
74777;SDS011;63298;53.164;8.610;2024-03-23T09:47:01;17.52;;;2.53;;
74777;SDS011;63298;53.164;8.610;2024-03-23T09:49:29;5.88;;;1.38;;
74777;SDS011;63298;53.164;8.610;2024-03-23T09:52:04;5.75;;;1.40;;
74777;SDS011;63298;53.164;8.610;2024-03-23T09:54:30;16.95;;;1.88;;
74777;SDS011;63298;53.164;8.610;2024-03-23T09:56:55;9.85;;;1.70;;
74777;SDS011;63298;53.164;8.610;2024-03-23T10:02:20;11.55;;;2.05;;
74777;SDS011;63298;53.164;8.610;2024-03-23T10:04:46;6.32;;;1.40;;
74777;SDS011;63298;53.164;8.610;2024-03-23T10:07:22;13.93;;;1.60;;
74777;SDS011;63298;53.164;8.610;2024-03-23T10:09:56;3.03;;;1.15;;
74777;SDS011;63298;53.164;8.610;2024-03-23T10:12:23;7.18;;;1.75;;
74777;SDS011;63298;53.164;8.610;2024-03-23T10:14:52;7.53;;;1.30;;
74777;SDS011;63298;53.164;8.610;2024-03-23T10:17:19;8.43;;;1.33;;
74777;SDS011;63298;53.164;8.610;2024-03-23T10:22:53;7.22;;;2.10;;
74777;SDS011;63298;53.164;8.610;2024-03-23T10:25:28;6.28;;;1.35;;
74777;SDS011;63298;53.164;8.610;2024-03-23T10:31:14;4.25;;;1.30;;
74777;SDS011;63298;53.164;8.610;2024-03-23T10:33:49;15.38;;;1.58;;
74777;SDS011;63298;53.164;8.610;2024-03-23T10:36:15;4.43;;;1.20;;
74777;SDS011;63298;53.164;8.610;2024-03-23T10:42:08;10.30;;;1.30;;
74777;SDS011;63298;53.164;8.610;2024-03-23T10:44:34;7.82;;;1.50;;
74777;SDS011;63298;53.164;8.610;2024-03-23T10:47:21;5.25;;;1.23;;
74777;SDS011;63298;53.164;8.610;2024-03-23T10:49:48;4.88;;;1.52;;
74777;SDS011;63298;53.164;8.610;2024-03-23T10:52:14;12.82;;;1.60;;
74777;SDS011;63298;53.164;8.610;2024-03-23T10:54:42;5.38;;;1.70;;
74777;SDS011;63298;53.164;8.610;2024-03-23T10:59:42;5.57;;;1.20;;
74777;SDS011;63298;53.164;8.610;2024-03-23T11:02:19;4.80;;;1.20;;
74777;SDS011;63298;53.164;8.610;2024-03-23T11:04:45;3.97;;;1.42;;
74777;SDS011;63298;53.164;8.610;2024-03-23T11:10:00;9.35;;;1.75;;
74777;SDS011;63298;53.164;8.610;2024-03-23T11:12:30;10.18;;;1.38;;
74777;SDS011;63298;53.164;8.610;2024-03-23T11:18:13;4.45;;;1.42;;
74777;SDS011;63298;53.164;8.610;2024-03-23T11:24:14;8.77;;;1.48;;
74777;SDS011;63298;53.164;8.610;2024-03-23T11:26:40;6.63;;;1.38;;
74777;SDS011;63298;53.164;8.610;2024-03-23T11:29:14;6.43;;;1.65;;
74777;SDS011;63298;53.164;8.610;2024-03-23T11:34:16;5.45;;;1.30;;
74777;SDS011;63298;53.164;8.610;2024-03-23T11:36:46;6.57;;;1.42;;
74777;SDS011;63298;53.164;8.610;2024-03-23T11:39:19;4.20;;;0.98;;
74777;SDS011;63298;53.164;8.610;2024-03-23T11:41:56;7.78;;;1.23;;
74777;SDS011;63298;53.164;8.610;2024-03-23T11:47:27;3.83;;;1.02;;
74777;SDS011;63298;53.164;8.610;2024-03-23T11:49:52;5.10;;;1.52;;
74777;SDS011;63298;53.164;8.610;2024-03-23T11:52:18;8.35;;;1.58;;
74777;SDS011;63298;53.164;8.610;2024-03-23T11:54:46;6.88;;;1.42;;
74777;SDS011;63298;53.164;8.610;2024-03-23T11:57:12;9.20;;;1.70;;
74777;SDS011;63298;53.164;8.610;2024-03-23T11:59:38;6.10;;;1.55;;
74777;SDS011;63298;53.164;8.610;2024-03-23T12:02:11;4.18;;;1.05;;
74777;SDS011;63298;53.164;8.610;2024-03-23T12:04:43;6.65;;;1.15;;
74777;SDS011;63298;53.164;8.610;2024-03-23T12:07:16;0.43;;;0.32;;
74777;SDS011;63298;53.164;8.610;2024-03-23T12:10:03;2.72;;;0.60;;
74777;SDS011;63298;53.164;8.610;2024-03-23T12:12:30;3.25;;;0.50;;
74777;SDS011;63298;53.164;8.610;2024-03-23T12:15:07;1.10;;;0.50;;
74777;SDS011;63298;53.164;8.610;2024-03-23T12:17:40;1.88;;;0.55;;
74777;SDS011;63298;53.164;8.610;2024-03-23T12:20:09;5.40;;;0.80;;
74777;SDS011;63298;53.164;8.610;2024-03-23T12:22:37;1.65;;;0.57;;
74777;SDS011;63298;53.164;8.610;2024-03-23T12:25:03;0.40;;;0.40;;
74777;SDS011;63298;53.164;8.610;2024-03-23T12:27:28;1.35;;;0.70;;
74777;SDS011;63298;53.164;8.610;2024-03-23T12:29:54;3.03;;;0.60;;
74777;SDS011;63298;53.164;8.610;2024-03-23T12:32:27;1.38;;;0.70;;
74777;SDS011;63298;53.164;8.610;2024-03-23T12:34:52;0.55;;;0.55;;
74777;SDS011;63298;53.164;8.610;2024-03-23T12:37:21;2.25;;;0.20;;
74777;SDS011;63298;53.164;8.610;2024-03-23T12:39:47;0.90;;;0.38;;
74777;SDS011;63298;53.164;8.610;2024-03-23T12:42:23;0.65;;;0.15;;
74777;SDS011;63298;53.164;8.610;2024-03-23T12:45:10;2.83;;;0.70;;
74777;SDS011;63298;53.164;8.610;2024-03-23T12:47:35;0.50;;;0.30;;
74777;SDS011;63298;53.164;8.610;2024-03-23T12:50:08;2.22;;;0.40;;
74777;SDS011;63298;53.164;8.610;2024-03-23T12:52:34;1.75;;;0.70;;
74777;SDS011;63298;53.164;8.610;2024-03-23T12:54:59;3.20;;;0.90;;
74777;SDS011;63298;53.164;8.610;2024-03-23T12:57:28;4.00;;;0.75;;
74777;SDS011;63298;53.164;8.610;2024-03-23T13:03:13;6.00;;;1.55;;
74777;SDS011;63298;53.164;8.610;2024-03-23T13:05:39;2.72;;;0.80;;
74777;SDS011;63298;53.164;8.610;2024-03-23T13:08:10;5.95;;;0.90;;
74777;SDS011;63298;53.164;8.610;2024-03-23T13:10:35;3.10;;;0.90;;
74777;SDS011;63298;53.164;8.610;2024-03-23T13:13:01;3.13;;;1.08;;
74777;SDS011;63298;53.164;8.610;2024-03-23T13:15:26;1.35;;;0.57;;
74777;SDS011;63298;53.164;8.610;2024-03-23T13:17:54;3.53;;;0.73;;
74777;SDS011;63298;53.164;8.610;2024-03-23T13:20:20;2.08;;;0.57;;
74777;SDS011;63298;53.164;8.610;2024-03-23T13:22:45;2.10;;;0.40;;
74777;SDS011;63298;53.164;8.610;2024-03-23T13:25:13;4.35;;;0.90;;
74777;SDS011;63298;53.164;8.610;2024-03-23T13:27:42;1.40;;;0.55;;
74777;SDS011;63298;53.164;8.610;2024-03-23T13:30:08;0.90;;;0.50;;
74777;SDS011;63298;53.164;8.610;2024-03-23T13:32:34;2.17;;;0.50;;
74777;SDS011;63298;53.164;8.610;2024-03-23T13:35:05;0.40;;;0.40;;
74777;SDS011;63298;53.164;8.610;2024-03-23T13:37:34;2.83;;;0.73;;
74777;SDS011;63298;53.164;8.610;2024-03-23T13:39:59;4.18;;;0.60;;
74777;SDS011;63298;53.164;8.610;2024-03-23T13:42:27;3.95;;;0.70;;
74777;SDS011;63298;53.164;8.610;2024-03-23T13:44:52;1.63;;;0.57;;
74777;SDS011;63298;53.164;8.610;2024-03-23T13:47:18;1.35;;;0.70;;
74777;SDS011;63298;53.164;8.610;2024-03-23T13:49:46;3.60;;;0.63;;
74777;SDS011;63298;53.164;8.610;2024-03-23T13:52:17;4.03;;;0.85;;
74777;SDS011;63298;53.164;8.610;2024-03-23T13:54:46;4.22;;;1.00;;
74777;SDS011;63298;53.164;8.610;2024-03-23T13:57:11;2.33;;;0.60;;
74777;SDS011;63298;53.164;8.610;2024-03-23T13:59:42;3.45;;;0.77;;
74777;SDS011;63298;53.164;8.610;2024-03-23T14:02:11;6.03;;;1.38;;
74777;SDS011;63298;53.164;8.610;2024-03-23T14:04:36;6.07;;;0.98;;
74777;SDS011;63298;53.164;8.610;2024-03-23T14:07:02;1.65;;;0.75;;
74777;SDS011;63298;53.164;8.610;2024-03-23T14:09:27;3.22;;;0.93;;
74777;SDS011;63298;53.164;8.610;2024-03-23T14:11:53;2.72;;;1.00;;
74777;SDS011;63298;53.164;8.610;2024-03-23T14:14:18;5.38;;;0.95;;
74777;SDS011;63298;53.164;8.610;2024-03-23T14:16:47;3.90;;;0.80;;
74777;SDS011;63298;53.164;8.610;2024-03-23T14:19:13;6.63;;;1.67;;
74777;SDS011;63298;53.164;8.610;2024-03-23T14:21:39;5.22;;;0.90;;
74777;SDS011;63298;53.164;8.610;2024-03-23T14:27:33;1.95;;;0.80;;
74777;SDS011;63298;53.164;8.610;2024-03-23T14:29:58;4.10;;;0.65;;
74777;SDS011;63298;53.164;8.610;2024-03-23T14:32:26;3.95;;;0.80;;
74777;SDS011;63298;53.164;8.610;2024-03-23T14:34:54;3.05;;;0.60;;
74777;SDS011;63298;53.164;8.610;2024-03-23T14:37:20;5.35;;;0.80;;
74777;SDS011;63298;53.164;8.610;2024-03-23T14:39:45;1.55;;;0.75;;
74777;SDS011;63298;53.164;8.610;2024-03-23T14:42:19;1.75;;;0.80;;
74777;SDS011;63298;53.164;8.610;2024-03-23T14:44:45;1.75;;;0.80;;
74777;SDS011;63298;53.164;8.610;2024-03-23T14:47:10;1.20;;;0.70;;
74777;SDS011;63298;53.164;8.610;2024-03-23T14:49:36;5.30;;;0.60;;
74777;SDS011;63298;53.164;8.610;2024-03-23T14:52:04;5.68;;;0.95;;
74777;SDS011;63298;53.164;8.610;2024-03-23T14:54:30;2.08;;;0.70;;
74777;SDS011;63298;53.164;8.610;2024-03-23T14:56:55;4.25;;;0.80;;
74777;SDS011;63298;53.164;8.610;2024-03-23T14:59:26;3.65;;;0.80;;
74777;SDS011;63298;53.164;8.610;2024-03-23T15:01:51;1.67;;;0.75;;
74777;SDS011;63298;53.164;8.610;2024-03-23T15:04:17;1.85;;;1.23;;
74777;SDS011;63298;53.164;8.610;2024-03-23T15:06:42;1.75;;;0.68;;
74777;SDS011;63298;53.164;8.610;2024-03-23T15:09:08;1.13;;;0.60;;
74777;SDS011;63298;53.164;8.610;2024-03-23T15:11:33;2.33;;;0.63;;
74777;SDS011;63298;53.164;8.610;2024-03-23T15:14:04;3.10;;;0.80;;
74777;SDS011;63298;53.164;8.610;2024-03-23T15:16:30;7.78;;;1.05;;
74777;SDS011;63298;53.164;8.610;2024-03-23T15:18:55;1.35;;;0.60;;
74777;SDS011;63298;53.164;8.610;2024-03-23T15:21:21;1.50;;;0.55;;
74777;SDS011;63298;53.164;8.610;2024-03-23T15:23:49;3.75;;;0.60;;
74777;SDS011;63298;53.164;8.610;2024-03-23T15:26:17;2.80;;;0.73;;
74777;SDS011;63298;53.164;8.610;2024-03-23T15:28:49;3.13;;;0.60;;
74777;SDS011;63298;53.164;8.610;2024-03-23T15:31:15;3.65;;;0.73;;
74777;SDS011;63298;53.164;8.610;2024-03-23T15:33:40;5.28;;;1.00;;
74777;SDS011;63298;53.164;8.610;2024-03-23T15:36:06;3.33;;;1.10;;
74777;SDS011;63298;53.164;8.610;2024-03-23T15:38:41;5.88;;;1.25;;
74777;SDS011;63298;53.164;8.610;2024-03-23T15:41:06;3.85;;;1.30;;
74777;SDS011;63298;53.164;8.610;2024-03-23T15:43:34;4.32;;;0.80;;
74777;SDS011;63298;53.164;8.610;2024-03-23T15:46:01;7.45;;;1.13;;
74777;SDS011;63298;53.164;8.610;2024-03-23T15:48:28;1.88;;;0.77;;
74777;SDS011;63298;53.164;8.610;2024-03-23T15:53:33;8.20;;;1.30;;
74777;SDS011;63298;53.164;8.610;2024-03-23T15:56:09;11.57;;;1.45;;
74777;SDS011;63298;53.164;8.610;2024-03-23T15:58:41;5.97;;;1.10;;
74777;SDS011;63298;53.164;8.610;2024-03-23T16:01:07;4.95;;;1.27;;
74777;SDS011;63298;53.164;8.610;2024-03-23T16:03:39;7.65;;;1.50;;
74777;SDS011;63298;53.164;8.610;2024-03-23T16:06:30;3.15;;;0.80;;
74777;SDS011;63298;53.164;8.610;2024-03-23T16:09:05;5.30;;;1.55;;
74777;SDS011;63298;53.164;8.610;2024-03-23T16:11:30;9.75;;;1.50;;
74777;SDS011;63298;53.164;8.610;2024-03-23T16:13:56;7.25;;;2.38;;
74777;SDS011;63298;53.164;8.610;2024-03-23T16:16:24;5.22;;;1.92;;
74777;SDS011;63298;53.164;8.610;2024-03-23T16:22:13;5.78;;;1.73;;
74777;SDS011;63298;53.164;8.610;2024-03-23T16:28:00;6.63;;;2.63;;
74777;SDS011;63298;53.164;8.610;2024-03-23T16:30:25;8.50;;;2.17;;
74777;SDS011;63298;53.164;8.610;2024-03-23T16:32:54;5.45;;;1.45;;
74777;SDS011;63298;53.164;8.610;2024-03-23T16:35:29;5.70;;;1.33;;
74777;SDS011;63298;53.164;8.610;2024-03-23T16:37:54;2.33;;;1.58;;
74777;SDS011;63298;53.164;8.610;2024-03-23T16:40:20;2.13;;;0.95;;
74777;SDS011;63298;53.164;8.610;2024-03-23T16:42:47;3.75;;;1.20;;
74777;SDS011;63298;53.164;8.610;2024-03-23T16:45:13;4.47;;;1.45;;
74777;SDS011;63298;53.164;8.610;2024-03-23T16:54:25;6.05;;;1.10;;
74777;SDS011;63298;53.164;8.610;2024-03-23T16:56:58;4.85;;;1.30;;
74777;SDS011;63298;53.164;8.610;2024-03-23T17:02:58;2.10;;;1.30;;
74777;SDS011;63298;53.164;8.610;2024-03-23T17:05:24;5.85;;;1.70;;
74777;SDS011;63298;53.164;8.610;2024-03-23T17:07:53;4.20;;;1.50;;
74777;SDS011;63298;53.164;8.610;2024-03-23T17:10:27;6.32;;;2.00;;
74777;SDS011;63298;53.164;8.610;2024-03-23T17:12:53;4.35;;;1.70;;
74777;SDS011;63298;53.164;8.610;2024-03-23T17:15:26;11.10;;;1.58;;
74777;SDS011;63298;53.164;8.610;2024-03-23T17:17:55;3.55;;;1.60;;
74777;SDS011;63298;53.164;8.610;2024-03-23T17:20:45;5.00;;;1.48;;